LIPZ/VCE METAR and TAF weather

Enter ICAO airport designator
Station Type Date Time Source
LIPZ METAR 2019/08/24 06:50 UTC NOAA

LIPZ 240650Z 02007KT CAVOK 24/18 Q1019 NOSIG


Station Type Date Time Source
LIPZ Decoded METAR 2019/08/24 06:50 UTC NOAA

Station name not available
Aug 24, 2019 - 02:50 AM EDT / 2019.08.24 0650 UTC
Wind: from the NNE (020 degrees) at 8 MPH (7 KT):0
Visibility: greater than 7 mile(s):0
Temperature: 75 F (24 C)
Dew Point: 64 F (18 C)
Relative Humidity: 69%
Pressure (altimeter): 30.09 in. Hg (1019 hPa)
ob: LIPZ 240650Z 02007KT CAVOK 24/18 Q1019 NOSIG
cycle: 7

Station Type Date Time Source
LIPZ TAF 2019/08/24 06:21 UTC NOAA

TAF LIPZ 240500Z 2406/2512 01007KT 9999 SCT040
TEMPO 2412/2418 SHRA

Example: see airport list